createdAt,value
2017-05-08T00:00:42.346Z,13
2017-05-08T00:10:42.287Z,14
2017-05-08T00:20:42.319Z,12
2017-05-08T00:30:42.313Z,11
2017-05-08T00:40:42.336Z,10
2017-05-08T00:50:42.364Z,11
2017-05-08T01:00:42.309Z,11
2017-05-08T01:10:42.486Z,10
2017-05-08T01:20:42.432Z,8
2017-05-08T01:30:42.476Z,8
2017-05-08T01:40:42.326Z,9
2017-05-08T01:50:42.329Z,6
2017-05-08T02:00:42.341Z,6
2017-05-08T02:10:42.395Z,5
2017-05-08T02:20:42.371Z,6
2017-05-08T02:30:42.374Z,5
2017-05-08T02:40:42.358Z,5
2017-05-08T02:50:42.454Z,6
2017-05-08T03:00:42.409Z,5
2017-05-08T03:10:42.472Z,6
2017-05-08T03:20:42.407Z,5
2017-05-08T03:30:42.495Z,6
2017-05-08T03:40:42.424Z,7
2017-05-08T03:50:42.438Z,7
2017-05-08T04:00:42.479Z,6
2017-05-08T04:10:42.509Z,6
2017-05-08T04:20:42.488Z,6
2017-05-08T04:30:42.457Z,5
2017-05-08T04:40:42.459Z,4
2017-05-08T04:50:42.599Z,5
2017-05-08T05:00:42.488Z,6
2017-05-08T05:10:42.491Z,6
2017-05-08T05:20:42.571Z,7
2017-05-08T05:30:42.522Z,8
2017-05-08T05:40:42.609Z,8
2017-05-08T05:50:42.511Z,8
2017-05-08T06:00:42.593Z,8
2017-05-08T06:10:42.545Z,8
2017-05-08T06:20:42.548Z,7
2017-05-08T06:30:42.590Z,6
2017-05-08T06:40:42.704Z,7
2017-05-08T06:50:42.603Z,6
2017-05-08T07:00:42.685Z,6
2017-05-08T07:10:42.606Z,7
2017-05-08T07:20:42.637Z,6
2017-05-08T07:30:42.838Z,5
2017-05-08T07:40:42.666Z,7
2017-05-08T07:50:42.951Z,5
2017-05-08T08:00:42.816Z,5
2017-05-08T08:10:42.667Z,6
2017-05-08T08:20:42.688Z,6
2017-05-08T08:30:42.738Z,6
2017-05-08T08:40:42.669Z,6
2017-05-08T08:50:43.088Z,5
2017-05-08T09:00:42.772Z,5
2017-05-08T09:10:42.828Z,5
2017-05-08T09:20:42.807Z,5
2017-05-08T09:30:43.012Z,5
2017-05-08T09:41:05.370Z,6
2017-05-08T09:50:57.866Z,5
2017-05-08T10:00:42.861Z,4
2017-05-08T10:10:42.878Z,4
2017-05-08T10:20:43.124Z,5
2017-05-08T10:30:42.828Z,4
2017-05-08T10:40:42.911Z,4
2017-05-08T10:50:42.801Z,5
2017-05-08T11:00:42.999Z,4
2017-05-08T11:10:42.922Z,4
2017-05-08T11:20:42.844Z,4
2017-05-08T11:30:43.951Z,5
2017-05-08T11:40:42.879Z,5
2017-05-08T11:50:44.094Z,5
2017-05-08T12:00:42.986Z,4
2017-05-08T12:10:42.907Z,4
2017-05-08T12:20:43.036Z,5
2017-05-08T12:30:42.968Z,5
2017-05-08T12:40:42.950Z,7
2017-05-08T12:50:42.972Z,5
2017-05-08T13:00:43.985Z,5
2017-05-08T13:10:43.015Z,4
2017-05-08T13:20:43.960Z,6
2017-05-08T13:30:42.978Z,5
2017-05-08T13:40:43.121Z,6
2017-05-08T13:50:43.932Z,6
2017-05-08T14:00:43.774Z,7
2017-05-08T14:10:43.159Z,6
2017-05-08T14:20:43.036Z,5
2017-05-08T14:30:43.251Z,5
2017-05-08T14:40:43.276Z,5
2017-05-08T14:50:43.085Z,5
2017-05-08T15:00:43.057Z,8
2017-05-08T15:10:43.088Z,5
2017-05-08T15:20:43.152Z,4
2017-05-08T15:30:43.093Z,4
2017-05-08T15:40:43.150Z,3
2017-05-08T15:50:43.232Z,4
2017-05-08T16:00:43.184Z,4
2017-05-08T16:10:43.310Z,3
2017-05-08T16:20:43.224Z,3
2017-05-08T16:30:43.253Z,3
2017-05-08T16:40:43.244Z,3
2017-05-08T16:50:43.369Z,3
2017-05-08T17:00:43.216Z,3
2017-05-08T17:10:43.201Z,3
2017-05-08T17:20:43.211Z,3
2017-05-08T17:30:43.265Z,3
2017-05-08T17:40:43.708Z,3
2017-05-08T17:50:43.244Z,3
2017-05-08T18:00:43.274Z,2
2017-05-08T18:10:43.295Z,3
2017-05-08T18:20:43.448Z,4
2017-05-08T18:30:43.281Z,3
2017-05-08T18:40:43.468Z,3
2017-05-08T18:50:43.348Z,3
2017-05-08T19:00:43.455Z,3
2017-05-08T19:10:43.356Z,3
2017-05-08T19:20:43.384Z,3
2017-05-08T19:30:43.345Z,3
2017-05-08T19:40:43.457Z,3
2017-05-08T19:50:43.381Z,3
2017-05-08T20:00:43.349Z,3
2017-05-08T20:10:43.415Z,3
2017-05-08T20:20:43.445Z,3
2017-05-08T20:30:43.574Z,3
2017-05-08T20:40:43.589Z,3
2017-05-08T20:50:43.624Z,3
2017-05-08T21:00:43.883Z,2
2017-05-08T21:10:44.778Z,3
2017-05-08T21:20:44.176Z,2
2017-05-08T21:30:43.806Z,2
2017-05-08T21:40:43.540Z,2
2017-05-08T21:50:43.809Z,2
2017-05-08T22:00:43.500Z,2
2017-05-08T22:10:43.557Z,2
2017-05-08T22:20:43.481Z,2
2017-05-08T22:30:43.606Z,2
2017-05-08T22:40:43.519Z,2
2017-05-08T22:50:43.636Z,2
2017-05-08T23:00:43.539Z,3
2017-05-08T23:10:43.541Z,3
2017-05-08T23:20:43.474Z,5
2017-05-08T23:30:43.519Z,4
2017-05-08T23:40:43.496Z,5
2017-05-08T23:50:43.615Z,3
